createdAt,value
2022-08-25T00:00:32.461Z,998.39
2022-08-25T00:01:32.425Z,998.30
2022-08-25T00:02:32.518Z,998.44
2022-08-25T00:03:35.910Z,998.36
2022-08-25T00:04:33.802Z,998.38
2022-08-25T00:05:33.560Z,998.41
2022-08-25T00:06:32.332Z,998.40
2022-08-25T00:07:32.348Z,998.39
2022-08-25T00:08:32.424Z,998.39
2022-08-25T00:09:32.315Z,998.42
2022-08-25T00:10:32.311Z,998.35
2022-08-25T00:11:32.287Z,998.39
2022-08-25T00:12:32.292Z,998.42
2022-08-25T00:13:32.320Z,998.37
2022-08-25T00:14:32.367Z,998.42
2022-08-25T00:15:32.432Z,998.36
2022-08-25T00:16:32.292Z,998.47
2022-08-25T00:17:32.345Z,998.38
2022-08-25T00:18:32.310Z,998.47
2022-08-25T00:19:33.348Z,998.42
2022-08-25T00:20:32.306Z,998.45
2022-08-25T00:21:32.306Z,998.42
2022-08-25T00:22:32.252Z,998.45
2022-08-25T00:23:32.325Z,998.50
2022-08-25T00:24:32.302Z,998.47
2022-08-25T00:25:32.339Z,998.46
2022-08-25T00:26:32.239Z,998.39
2022-08-25T00:27:32.284Z,998.41
2022-08-25T00:28:32.253Z,998.50
2022-08-25T00:29:32.316Z,998.43
2022-08-25T00:30:33.199Z,998.42
2022-08-25T00:31:38.619Z,998.44
2022-08-25T00:32:33.204Z,998.44
2022-08-25T00:33:32.197Z,998.42
2022-08-25T00:34:32.185Z,998.45
2022-08-25T00:35:32.239Z,998.45
2022-08-25T00:36:32.191Z,998.46
2022-08-25T00:37:32.206Z,998.44
2022-08-25T00:38:32.183Z,998.44
2022-08-25T00:39:32.165Z,998.47
2022-08-25T00:40:32.241Z,998.48
2022-08-25T00:41:32.158Z,998.43
2022-08-25T00:42:32.180Z,998.45
2022-08-25T00:43:32.147Z,998.40
2022-08-25T00:44:32.143Z,998.51
2022-08-25T00:45:32.119Z,998.39
2022-08-25T00:46:32.196Z,998.46
2022-08-25T00:47:32.086Z,998.45
2022-08-25T00:48:32.113Z,998.45
2022-08-25T00:49:32.092Z,998.45
2022-08-25T00:50:32.118Z,998.44
2022-08-25T00:51:32.067Z,998.41
2022-08-25T00:52:32.039Z,998.43
2022-08-25T00:53:32.011Z,998.47
2022-08-25T00:54:32.003Z,998.43
2022-08-25T00:55:31.981Z,998.41
2022-08-25T00:56:32.018Z,998.46
2022-08-25T00:57:34.690Z,998.57
2022-08-25T00:58:31.977Z,998.53
2022-08-25T00:59:32.036Z,998.42
2022-08-25T01:00:31.972Z,998.48
2022-08-25T01:01:31.969Z,998.52
2022-08-25T01:02:32.034Z,998.55
2022-08-25T01:03:33.395Z,998.48
2022-08-25T01:04:31.916Z,998.46
2022-08-25T01:05:32.947Z,998.43
2022-08-25T01:06:31.931Z,998.46
2022-08-25T01:07:32.077Z,998.37
2022-08-25T01:08:32.117Z,998.44
2022-08-25T01:09:31.977Z,998.39
2022-08-25T01:10:31.951Z,998.34
2022-08-25T01:11:31.956Z,998.38
2022-08-25T01:12:32.049Z,998.35
2022-08-25T01:13:31.992Z,998.43
2022-08-25T01:14:31.918Z,998.27
2022-08-25T01:15:32.010Z,998.32
2022-08-25T01:16:31.902Z,998.26
2022-08-25T01:17:32.002Z,998.32
2022-08-25T01:18:31.916Z,998.26
2022-08-25T01:19:31.897Z,998.27
2022-08-25T01:20:31.872Z,998.35
2022-08-25T01:21:31.844Z,998.35
2022-08-25T01:22:31.954Z,998.33
2022-08-25T01:23:31.912Z,998.29
2022-08-25T01:24:31.829Z,998.28
2022-08-25T01:25:31.827Z,998.31
2022-08-25T01:26:31.799Z,998.32
2022-08-25T01:27:32.843Z,998.29
2022-08-25T01:28:31.847Z,998.33
2022-08-25T01:29:31.833Z,998.33
2022-08-25T01:30:31.839Z,998.40
2022-08-25T01:31:31.835Z,998.33
2022-08-25T01:32:32.768Z,998.35
2022-08-25T01:33:31.802Z,998.26
2022-08-25T01:34:31.856Z,998.34
2022-08-25T01:35:31.772Z,998.33
2022-08-25T01:36:31.774Z,998.24
2022-08-25T01:37:31.722Z,998.26
2022-08-25T01:38:31.669Z,998.29
2022-08-25T01:39:31.740Z,998.26
2022-08-25T01:40:31.800Z,998.25
2022-08-25T01:41:31.665Z,998.21
2022-08-25T01:42:31.747Z,998.34
2022-08-25T01:43:31.644Z,998.28
2022-08-25T01:44:31.664Z,998.27
2022-08-25T01:45:31.654Z,998.33
2022-08-25T01:46:31.737Z,998.29
2022-08-25T01:47:31.682Z,998.30
2022-08-25T01:48:31.669Z,998.28
2022-08-25T01:49:31.723Z,998.26
2022-08-25T01:50:31.693Z,998.22
2022-08-25T01:51:31.648Z,998.32
2022-08-25T01:52:31.726Z,998.23
2022-08-25T01:53:33.533Z,998.17
2022-08-25T01:54:31.614Z,998.17
2022-08-25T01:55:31.701Z,998.22
2022-08-25T01:56:31.632Z,998.16
2022-08-25T01:57:31.633Z,998.20
2022-08-25T01:58:31.608Z,998.21
2022-08-25T01:59:31.624Z,998.24
2022-08-25T02:00:31.673Z,998.19
2022-08-25T02:01:31.702Z,998.23
2022-08-25T02:02:31.756Z,998.21
2022-08-25T02:03:31.655Z,998.28
2022-08-25T02:04:31.560Z,998.24
2022-08-25T02:05:31.611Z,998.22
2022-08-25T02:06:31.533Z,998.29
2022-08-25T02:07:31.569Z,998.27
2022-08-25T02:08:31.555Z,998.24
2022-08-25T02:09:31.541Z,998.23
2022-08-25T02:10:31.549Z,998.22
2022-08-25T02:11:31.584Z,998.25
2022-08-25T02:12:31.510Z,998.27
2022-08-25T02:13:32.583Z,998.21
2022-08-25T02:14:31.482Z,998.23
2022-08-25T02:15:31.478Z,998.18
2022-08-25T02:16:31.578Z,998.18
2022-08-25T02:17:31.454Z,998.17
2022-08-25T02:18:31.500Z,998.18
2022-08-25T02:19:31.477Z,998.21
2022-08-25T02:20:31.431Z,998.24
2022-08-25T02:21:31.471Z,998.23
2022-08-25T02:22:31.545Z,998.19
2022-08-25T02:23:31.443Z,998.24
2022-08-25T02:24:31.503Z,998.27
2022-08-25T02:25:31.362Z,998.26
2022-08-25T02:26:31.341Z,998.26
2022-08-25T02:27:32.378Z,998.32
2022-08-25T02:28:31.329Z,998.33
2022-08-25T02:29:31.353Z,998.26
2022-08-25T02:30:31.344Z,998.27
2022-08-25T02:31:31.314Z,998.30
2022-08-25T02:32:31.351Z,998.30
2022-08-25T02:33:31.303Z,998.29
2022-08-25T02:34:31.296Z,998.23
2022-08-25T02:35:31.934Z,998.22
2022-08-25T02:36:31.307Z,998.33
2022-08-25T02:37:31.242Z,998.24
2022-08-25T02:38:31.302Z,998.22
2022-08-25T02:39:31.283Z,998.22
2022-08-25T02:40:31.239Z,998.13
2022-08-25T02:41:31.803Z,998.25
2022-08-25T02:42:31.267Z,998.19
2022-08-25T02:43:31.423Z,998.14
2022-08-25T02:44:31.299Z,998.18
2022-08-25T02:45:31.363Z,998.11
2022-08-25T02:46:31.302Z,998.11
2022-08-25T02:47:31.331Z,998.19
2022-08-25T02:48:31.326Z,998.11
2022-08-25T02:49:31.302Z,998.12
2022-08-25T02:50:31.259Z,998.18
2022-08-25T02:51:31.229Z,998.16
2022-08-25T02:52:31.301Z,998.12
2022-08-25T02:53:31.238Z,998.11
2022-08-25T02:54:31.260Z,998.15
2022-08-25T02:55:31.282Z,998.12
2022-08-25T02:56:31.222Z,998.18
2022-08-25T02:57:31.224Z,998.10
2022-08-25T02:58:31.225Z,998.15
2022-08-25T02:59:31.236Z,998.13
2022-08-25T03:00:31.202Z,998.09
2022-08-25T03:01:31.301Z,998.09
2022-08-25T03:02:31.180Z,998.07
2022-08-25T03:03:31.189Z,998.12
2022-08-25T03:04:31.234Z,998.15
2022-08-25T03:05:31.177Z,998.12
2022-08-25T03:06:31.177Z,998.12
2022-08-25T03:07:31.128Z,998.12
2022-08-25T03:08:31.222Z,998.13
2022-08-25T03:09:31.151Z,998.12
2022-08-25T03:10:31.193Z,998.11
2022-08-25T03:11:31.112Z,998.14
2022-08-25T03:12:31.174Z,998.13
2022-08-25T03:13:31.096Z,998.11
2022-08-25T03:14:31.107Z,998.07
2022-08-25T03:15:31.473Z,998.08
2022-08-25T03:16:31.155Z,998.11
2022-08-25T03:17:31.076Z,998.11
2022-08-25T03:18:31.091Z,998.15
2022-08-25T03:19:31.038Z,998.12
2022-08-25T03:20:31.007Z,998.11
2022-08-25T03:21:30.957Z,998.08
2022-08-25T03:22:30.947Z,998.08
2022-08-25T03:23:30.977Z,998.06
2022-08-25T03:24:31.035Z,998.07
2022-08-25T03:25:30.960Z,998.04
2022-08-25T03:26:31.057Z,998.06
2022-08-25T03:27:31.029Z,998.08
2022-08-25T03:28:30.993Z,998.07
2022-08-25T03:29:31.013Z,998.06
2022-08-25T03:30:30.991Z,998.07
2022-08-25T03:31:31.101Z,998.10
2022-08-25T03:32:30.998Z,998.18
2022-08-25T03:33:31.032Z,998.12
2022-08-25T03:34:30.999Z,998.19
2022-08-25T03:35:31.074Z,998.19
2022-08-25T03:36:30.969Z,998.19
2022-08-25T03:37:30.929Z,998.23
2022-08-25T03:38:30.929Z,998.21
2022-08-25T03:39:30.930Z,998.22
2022-08-25T03:40:30.978Z,998.22
2022-08-25T03:41:30.915Z,998.19
2022-08-25T03:42:30.916Z,998.15
2022-08-25T03:43:30.899Z,998.28
2022-08-25T03:44:30.903Z,998.22
2022-08-25T03:45:30.874Z,998.22
2022-08-25T03:46:30.897Z,998.18
2022-08-25T03:47:30.953Z,998.19
2022-08-25T03:48:30.888Z,998.16
2022-08-25T03:49:30.848Z,998.13
2022-08-25T03:50:30.875Z,998.14
2022-08-25T03:51:30.885Z,998.21
2022-08-25T03:52:30.863Z,998.07
2022-08-25T03:53:30.818Z,998.05
2022-08-25T03:54:30.904Z,998.09
2022-08-25T03:55:30.849Z,998.08
2022-08-25T03:56:30.829Z,998.07
2022-08-25T03:57:30.834Z,998.09
2022-08-25T03:58:30.899Z,998.11
2022-08-25T03:59:30.775Z,998.02
2022-08-25T04:00:30.806Z,998.04
2022-08-25T04:01:30.807Z,997.93
2022-08-25T04:02:31.575Z,998.01
2022-08-25T04:03:30.735Z,997.96
2022-08-25T04:04:30.661Z,997.95
2022-08-25T04:05:30.695Z,997.94
2022-08-25T04:06:30.618Z,997.92
2022-08-25T04:07:30.692Z,997.90
2022-08-25T04:08:30.683Z,997.95
2022-08-25T04:09:33.138Z,997.97
2022-08-25T04:10:31.674Z,997.93
2022-08-25T04:11:30.633Z,997.96
2022-08-25T04:12:30.626Z,998.00
2022-08-25T04:13:30.627Z,998.00
2022-08-25T04:14:30.676Z,997.98
2022-08-25T04:15:30.647Z,998.04
2022-08-25T04:16:30.661Z,998.05
2022-08-25T04:17:30.595Z,998.14
2022-08-25T04:18:30.629Z,998.03
2022-08-25T04:19:31.043Z,998.10
2022-08-25T04:20:30.678Z,998.11
2022-08-25T04:21:30.699Z,998.16
2022-08-25T04:22:30.680Z,998.16
2022-08-25T04:23:30.613Z,998.10
2022-08-25T04:24:30.664Z,998.15
2022-08-25T04:25:30.602Z,998.13
2022-08-25T04:26:30.603Z,998.15
2022-08-25T04:27:30.584Z,998.13
2022-08-25T04:28:30.570Z,998.14
2022-08-25T04:29:30.577Z,998.19
2022-08-25T04:30:30.645Z,998.10
2022-08-25T04:31:30.639Z,998.11
2022-08-25T04:32:30.604Z,998.03
2022-08-25T04:33:30.590Z,998.09
2022-08-25T04:34:31.552Z,998.06
2022-08-25T04:35:31.578Z,998.02
2022-08-25T04:36:30.576Z,998.07
2022-08-25T04:37:30.522Z,998.02
2022-08-25T04:38:30.498Z,998.03
2022-08-25T04:39:30.552Z,997.96
2022-08-25T04:40:30.632Z,998.01
2022-08-25T04:41:30.511Z,997.94
2022-08-25T04:42:30.524Z,997.99
2022-08-25T04:43:30.495Z,997.91
2022-08-25T04:44:30.522Z,997.97
2022-08-25T04:45:30.512Z,997.98
2022-08-25T04:46:30.487Z,998.01
2022-08-25T04:47:30.452Z,997.98
2022-08-25T04:48:30.406Z,998.04
2022-08-25T04:49:31.468Z,997.96
2022-08-25T04:50:30.496Z,997.95
2022-08-25T04:51:30.456Z,997.99
2022-08-25T04:52:30.398Z,997.97
2022-08-25T04:53:30.417Z,997.95
2022-08-25T04:54:36.015Z,997.97
2022-08-25T04:55:31.420Z,997.93
2022-08-25T04:56:30.467Z,997.89
2022-08-25T04:57:30.405Z,997.85
2022-08-25T04:58:30.388Z,997.87
2022-08-25T04:59:30.809Z,997.89
2022-08-25T05:00:30.363Z,997.89
2022-08-25T05:01:30.524Z,997.86
2022-08-25T05:02:30.397Z,997.79
2022-08-25T05:03:30.383Z,997.84
2022-08-25T05:04:30.363Z,997.93
2022-08-25T05:05:30.393Z,997.94
2022-08-25T05:06:30.342Z,997.94
2022-08-25T05:07:30.443Z,997.90
2022-08-25T05:08:30.348Z,997.84
2022-08-25T05:09:32.658Z,997.87
2022-08-25T05:10:30.484Z,997.88
2022-08-25T05:11:30.222Z,997.92
2022-08-25T05:12:30.293Z,997.82
2022-08-25T05:13:30.218Z,997.82
2022-08-25T05:14:30.215Z,997.77
2022-08-25T05:15:30.153Z,997.84
2022-08-25T05:16:30.210Z,997.78
2022-08-25T05:17:30.265Z,997.85
2022-08-25T05:18:30.168Z,997.86
2022-08-25T05:19:30.293Z,997.83
2022-08-25T05:20:30.272Z,997.94
2022-08-25T05:21:30.240Z,997.83
2022-08-25T05:22:30.276Z,997.88
2022-08-25T05:23:30.229Z,997.89
2022-08-25T05:24:30.212Z,997.93
2022-08-25T05:25:30.233Z,997.92
2022-08-25T05:26:30.294Z,997.92
2022-08-25T05:27:30.240Z,997.90
2022-08-25T05:28:30.306Z,997.92
2022-08-25T05:29:30.219Z,997.87
2022-08-25T05:30:30.252Z,997.83
2022-08-25T05:31:30.203Z,997.85
2022-08-25T05:32:30.167Z,997.92
2022-08-25T05:33:30.512Z,997.88
2022-08-25T05:34:30.189Z,997.93
2022-08-25T05:35:30.161Z,997.90
2022-08-25T05:36:30.115Z,997.90
2022-08-25T05:37:30.149Z,997.92
2022-08-25T05:38:30.127Z,997.98
2022-08-25T05:39:30.105Z,998.02
2022-08-25T05:40:30.116Z,997.93
2022-08-25T05:41:30.090Z,997.99
2022-08-25T05:42:29.974Z,997.88
2022-08-25T05:43:30.023Z,997.87
2022-08-25T05:44:29.974Z,997.89
2022-08-25T05:45:29.995Z,997.93
2022-08-25T05:46:31.646Z,997.87
2022-08-25T05:47:29.958Z,997.88
2022-08-25T05:48:29.936Z,997.93
2022-08-25T05:49:29.987Z,997.90
2022-08-25T05:50:29.907Z,997.81
2022-08-25T05:51:29.934Z,997.78
2022-08-25T05:52:29.898Z,997.82
2022-08-25T05:53:31.101Z,997.84
2022-08-25T05:54:29.927Z,997.90
2022-08-25T05:55:29.899Z,997.88
2022-08-25T05:56:29.872Z,997.86
2022-08-25T05:57:29.958Z,997.87
2022-08-25T05:58:29.974Z,997.83
2022-08-25T05:59:30.055Z,997.86
2022-08-25T06:00:29.988Z,997.85
2022-08-25T06:01:29.998Z,997.81
2022-08-25T06:02:29.920Z,997.84
2022-08-25T06:03:29.972Z,997.78
2022-08-25T06:04:29.917Z,997.83
2022-08-25T06:05:29.935Z,997.77
2022-08-25T06:06:29.954Z,997.79
2022-08-25T06:07:29.917Z,997.77
2022-08-25T06:08:29.913Z,997.82
2022-08-25T06:09:29.917Z,997.75
2022-08-25T06:10:29.955Z,997.68
2022-08-25T06:11:29.869Z,997.72
2022-08-25T06:12:29.972Z,997.81
2022-08-25T06:13:29.883Z,997.78
2022-08-25T06:14:29.934Z,997.79
2022-08-25T06:15:29.887Z,997.81
2022-08-25T06:16:29.882Z,997.77
2022-08-25T06:17:29.804Z,997.68
2022-08-25T06:18:29.780Z,997.77
2022-08-25T06:19:29.854Z,997.76
2022-08-25T06:20:29.859Z,997.72
2022-08-25T06:21:29.809Z,997.72
2022-08-25T06:22:29.831Z,997.73
2022-08-25T06:23:29.836Z,997.76
2022-08-25T06:24:29.776Z,997.64
2022-08-25T06:25:29.797Z,997.69
2022-08-25T06:26:29.795Z,997.67
2022-08-25T06:27:29.795Z,997.65
2022-08-25T06:28:29.788Z,997.75
2022-08-25T06:29:29.731Z,997.71
2022-08-25T06:30:29.857Z,997.69
2022-08-25T06:31:29.829Z,997.63
2022-08-25T06:32:29.726Z,997.67
2022-08-25T06:33:29.768Z,997.62
2022-08-25T06:34:29.716Z,997.65
2022-08-25T06:35:29.850Z,997.62
2022-08-25T06:36:29.724Z,997.59
2022-08-25T06:37:29.775Z,997.55
2022-08-25T06:38:29.691Z,997.64
2022-08-25T06:39:29.676Z,997.62
2022-08-25T06:40:29.724Z,997.61
2022-08-25T06:41:36.503Z,997.56
2022-08-25T06:42:30.640Z,997.62
2022-08-25T06:43:29.632Z,997.60
2022-08-25T06:44:29.655Z,997.56
2022-08-25T06:45:29.606Z,997.55
2022-08-25T06:46:36.383Z,997.54
2022-08-25T06:47:30.626Z,997.50
2022-08-25T06:48:29.572Z,997.52
2022-08-25T06:49:34.172Z,997.46
2022-08-25T06:50:31.642Z,997.48
2022-08-25T06:51:29.621Z,997.46
2022-08-25T06:52:29.688Z,997.46
2022-08-25T06:53:29.575Z,997.49
2022-08-25T06:54:29.506Z,997.44
2022-08-25T06:55:29.430Z,997.41
2022-08-25T06:56:29.483Z,997.48
2022-08-25T06:57:29.441Z,997.50
2022-08-25T06:58:29.441Z,997.48
2022-08-25T06:59:32.003Z,997.54
2022-08-25T07:00:30.357Z,997.50
2022-08-25T07:01:29.472Z,997.47
2022-08-25T07:02:29.571Z,997.43
2022-08-25T07:03:30.435Z,997.42
2022-08-25T07:04:29.417Z,997.41
2022-08-25T07:05:42.632Z,997.42
2022-08-25T07:06:31.396Z,997.48
2022-08-25T07:07:43.614Z,997.47
2022-08-25T07:08:30.409Z,997.51
2022-08-25T07:09:29.386Z,997.44
2022-08-25T07:10:29.348Z,997.42
2022-08-25T07:11:29.346Z,997.41
2022-08-25T07:12:29.388Z,997.41
2022-08-25T07:13:29.333Z,997.41
2022-08-25T07:14:29.306Z,997.40
2022-08-25T07:15:29.471Z,997.42
2022-08-25T07:16:29.699Z,997.38
2022-08-25T07:17:29.322Z,997.38
2022-08-25T07:18:29.437Z,997.39
2022-08-25T07:19:29.425Z,997.41
2022-08-25T07:20:29.393Z,997.39
2022-08-25T07:21:33.155Z,997.38
2022-08-25T07:22:30.251Z,997.40
2022-08-25T07:23:29.419Z,997.38
2022-08-25T07:24:29.364Z,997.33
2022-08-25T07:25:29.351Z,997.33
2022-08-25T07:26:38.182Z,997.36
2022-08-25T07:27:31.240Z,997.33
2022-08-25T07:28:29.415Z,997.33
2022-08-25T07:29:32.392Z,997.36
2022-08-25T07:30:29.338Z,997.35
2022-08-25T07:31:29.747Z,997.27
2022-08-25T07:32:29.325Z,997.33
2022-08-25T07:33:29.323Z,997.33
2022-08-25T07:34:29.326Z,997.34
2022-08-25T07:35:37.663Z,997.39
2022-08-25T07:36:30.161Z,997.38
2022-08-25T07:37:49.985Z,997.39
2022-08-25T07:38:31.161Z,997.43
2022-08-25T07:39:29.309Z,997.39
2022-08-25T07:40:29.337Z,997.35
2022-08-25T07:41:29.248Z,997.33
2022-08-25T07:42:29.465Z,997.31
2022-08-25T07:43:29.250Z,997.35
2022-08-25T07:44:29.349Z,997.29
2022-08-25T07:45:29.235Z,997.34
2022-08-25T07:46:29.320Z,997.29
2022-08-25T07:47:29.196Z,997.34
2022-08-25T07:48:29.189Z,997.37
2022-08-25T07:49:35.967Z,997.33
2022-08-25T07:50:30.220Z,997.38
2022-08-25T07:51:29.188Z,997.39
2022-08-25T07:52:29.137Z,997.37
2022-08-25T07:53:29.165Z,997.40
2022-08-25T07:54:33.948Z,997.36
2022-08-25T07:55:30.214Z,997.34
2022-08-25T07:56:29.179Z,997.34
2022-08-25T07:57:29.156Z,997.34
2022-08-25T07:58:29.112Z,997.32
2022-08-25T07:59:29.096Z,997.28
2022-08-25T08:00:29.178Z,997.31
2022-08-25T08:01:29.127Z,997.35
2022-08-25T08:02:29.169Z,997.36
2022-08-25T08:03:45.155Z,997.35
2022-08-25T08:04:30.974Z,997.34
2022-08-25T08:05:29.119Z,997.37
2022-08-25T08:06:29.144Z,997.27
2022-08-25T08:07:43.122Z,997.30
2022-08-25T08:08:30.097Z,997.28
2022-08-25T08:09:29.125Z,997.24
2022-08-25T08:10:47.844Z,997.29
2022-08-25T08:11:30.977Z,997.31
2022-08-25T08:12:29.117Z,997.24
2022-08-25T08:13:29.026Z,997.35
2022-08-25T08:14:29.042Z,997.34
2022-08-25T08:15:29.963Z,997.35
2022-08-25T08:16:29.079Z,997.31
2022-08-25T08:17:28.978Z,997.36
2022-08-25T08:18:28.917Z,997.39
2022-08-25T08:19:28.878Z,997.42
2022-08-25T08:20:28.957Z,997.38
2022-08-25T08:21:28.941Z,997.36
2022-08-25T08:22:28.858Z,997.36
2022-08-25T08:23:28.874Z,997.36
2022-08-25T08:24:44.159Z,997.36
2022-08-25T08:25:30.903Z,997.29
2022-08-25T08:26:48.109Z,997.29
2022-08-25T08:27:30.922Z,997.33
2022-08-25T08:28:28.813Z,997.25
2022-08-25T08:29:28.813Z,997.24
2022-08-25T08:30:28.972Z,997.24
2022-08-25T08:31:28.953Z,997.26
2022-08-25T08:32:45.074Z,997.26
2022-08-25T08:33:30.797Z,997.21
2022-08-25T08:34:28.791Z,997.28
2022-08-25T08:35:28.853Z,997.26
2022-08-25T08:36:28.860Z,997.20
2022-08-25T08:37:28.899Z,997.14
2022-08-25T08:38:28.806Z,997.21
2022-08-25T08:39:28.873Z,997.17
2022-08-25T08:40:28.952Z,997.19
2022-08-25T08:41:28.827Z,997.23
2022-08-25T08:42:28.833Z,997.17
2022-08-25T08:43:33.229Z,997.23
2022-08-25T08:44:29.813Z,997.21
2022-08-25T08:45:28.809Z,997.23
2022-08-25T08:46:28.840Z,997.28
2022-08-25T08:47:28.852Z,997.20
2022-08-25T08:48:28.823Z,997.19
2022-08-25T08:49:28.843Z,997.22
2022-08-25T08:50:32.923Z,997.26
2022-08-25T08:51:32.965Z,997.16
2022-08-25T08:52:28.775Z,997.12
2022-08-25T08:53:28.862Z,997.13
2022-08-25T08:54:29.755Z,997.09
2022-08-25T08:55:28.811Z,997.16
2022-08-25T08:56:30.701Z,997.16
2022-08-25T08:57:28.785Z,997.17
2022-08-25T08:58:28.717Z,997.10
2022-08-25T08:59:30.352Z,997.11
2022-08-25T09:00:28.695Z,997.10
2022-08-25T09:01:28.796Z,997.07
2022-08-25T09:02:38.836Z,997.05
2022-08-25T09:03:29.632Z,997.04
2022-08-25T09:04:28.719Z,997.06
2022-08-25T09:05:28.644Z,997.08
2022-08-25T09:06:28.658Z,997.07
2022-08-25T09:07:28.633Z,996.99
2022-08-25T09:08:28.666Z,997.02
2022-08-25T09:09:28.701Z,996.98
2022-08-25T09:10:28.599Z,997.03
2022-08-25T09:11:28.609Z,997.00
2022-08-25T09:12:28.668Z,996.96
2022-08-25T09:13:28.602Z,997.02
2022-08-25T09:14:30.299Z,997.00
2022-08-25T09:15:28.645Z,996.99
2022-08-25T09:16:33.853Z,996.94
2022-08-25T09:17:28.623Z,996.95
2022-08-25T09:18:28.702Z,996.93
2022-08-25T09:19:28.574Z,996.91
2022-08-25T09:20:28.566Z,996.94
2022-08-25T09:21:28.472Z,996.84
2022-08-25T09:22:35.813Z,996.92
2022-08-25T09:23:29.423Z,996.95
2022-08-25T09:24:28.462Z,996.91
2022-08-25T09:25:48.727Z,996.97
2022-08-25T09:26:30.417Z,996.93
2022-08-25T09:27:28.412Z,996.91
2022-08-25T09:28:28.389Z,996.88
2022-08-25T09:29:28.407Z,996.88
2022-08-25T09:30:28.385Z,996.88
2022-08-25T09:31:29.862Z,996.84
2022-08-25T09:32:31.571Z,996.82
2022-08-25T09:33:28.384Z,996.79
2022-08-25T09:34:28.384Z,996.76
2022-08-25T09:35:28.385Z,996.79
2022-08-25T09:36:28.391Z,996.75
2022-08-25T09:37:28.412Z,996.74
2022-08-25T09:38:28.447Z,996.76
2022-08-25T09:39:28.467Z,996.71
2022-08-25T09:40:28.533Z,996.69
2022-08-25T09:41:28.546Z,996.64
2022-08-25T09:42:28.432Z,996.61
2022-08-25T09:43:28.402Z,996.58
2022-08-25T09:44:28.410Z,996.64
2022-08-25T09:45:28.379Z,996.57
2022-08-25T09:46:28.425Z,996.53
2022-08-25T09:47:28.478Z,996.47
2022-08-25T09:48:28.469Z,996.46
2022-08-25T09:49:28.380Z,996.46
2022-08-25T09:50:28.331Z,996.50
2022-08-25T09:51:28.365Z,996.45
2022-08-25T09:52:28.378Z,996.41
2022-08-25T09:53:28.405Z,996.40
2022-08-25T09:54:36.319Z,996.30
2022-08-25T09:55:29.243Z,996.30
2022-08-25T09:56:28.334Z,996.31
2022-08-25T09:57:28.309Z,996.33
2022-08-25T09:58:28.319Z,996.30
2022-08-25T09:59:34.081Z,996.34
2022-08-25T10:00:29.305Z,996.26
2022-08-25T10:01:29.305Z,996.20
2022-08-25T10:02:29.339Z,996.27
2022-08-25T10:03:28.250Z,996.15
2022-08-25T10:04:28.248Z,996.11
2022-08-25T10:05:28.259Z,996.15
2022-08-25T10:06:28.230Z,996.26
2022-08-25T10:07:28.212Z,996.19
2022-08-25T10:08:28.294Z,996.18
2022-08-25T10:09:28.216Z,996.13
2022-08-25T10:10:28.167Z,996.17
2022-08-25T10:11:28.201Z,996.11
2022-08-25T10:12:28.191Z,996.12
2022-08-25T10:13:28.244Z,996.10
2022-08-25T10:14:28.161Z,996.08
2022-08-25T10:15:29.422Z,996.04
2022-08-25T10:16:33.626Z,995.95
2022-08-25T10:17:30.176Z,995.96
2022-08-25T10:18:28.250Z,996.00
2022-08-25T10:19:28.156Z,995.95
2022-08-25T10:20:33.065Z,995.89
2022-08-25T10:21:29.149Z,995.96
2022-08-25T10:22:28.098Z,995.86
2022-08-25T10:23:28.119Z,995.83
2022-08-25T10:24:28.123Z,995.84
2022-08-25T10:25:28.084Z,995.82
2022-08-25T10:26:28.073Z,995.78
2022-08-25T10:27:28.810Z,995.79
2022-08-25T10:28:29.058Z,995.66
2022-08-25T10:29:28.009Z,995.72
2022-08-25T10:30:27.973Z,995.69
2022-08-25T10:31:28.006Z,995.71
2022-08-25T10:32:27.999Z,995.64
2022-08-25T10:33:27.954Z,995.68
2022-08-25T10:34:28.328Z,995.70
2022-08-25T10:35:27.991Z,995.65
2022-08-25T10:36:27.939Z,995.67
2022-08-25T10:37:27.940Z,995.71
2022-08-25T10:38:33.443Z,995.66
2022-08-25T10:39:34.035Z,995.66
2022-08-25T10:40:29.010Z,995.67
2022-08-25T10:41:27.903Z,995.60
2022-08-25T10:42:28.084Z,995.70
2022-08-25T10:43:28.042Z,995.66
2022-08-25T10:44:27.937Z,995.59
2022-08-25T10:45:28.051Z,995.47
2022-08-25T10:46:27.895Z,995.57
2022-08-25T10:47:27.889Z,995.50
2022-08-25T10:48:27.927Z,995.53
2022-08-25T10:49:27.919Z,995.50
2022-08-25T10:50:27.937Z,995.46
2022-08-25T10:51:27.886Z,995.45
2022-08-25T10:52:27.866Z,995.40
2022-08-25T10:53:27.904Z,995.37
2022-08-25T10:54:27.908Z,995.40
2022-08-25T10:55:27.910Z,995.40
2022-08-25T10:56:27.874Z,995.40
2022-08-25T10:57:27.859Z,995.38
2022-08-25T10:58:30.805Z,995.41
2022-08-25T10:59:27.858Z,995.41
2022-08-25T11:00:31.310Z,995.34
2022-08-25T11:01:29.010Z,995.37
2022-08-25T11:02:27.745Z,995.36
2022-08-25T11:03:27.822Z,995.38
2022-08-25T11:04:28.876Z,995.31
2022-08-25T11:05:27.836Z,995.23
2022-08-25T11:06:27.907Z,995.25
2022-08-25T11:07:27.808Z,995.21
2022-08-25T11:08:27.837Z,995.25
2022-08-25T11:09:27.793Z,995.22
2022-08-25T11:10:27.771Z,995.19
2022-08-25T11:11:27.799Z,995.19
2022-08-25T11:12:27.746Z,995.19
2022-08-25T11:13:27.750Z,995.18
2022-08-25T11:14:30.370Z,995.23
2022-08-25T11:15:28.761Z,995.17
2022-08-25T11:16:27.804Z,995.13
2022-08-25T11:17:28.733Z,995.14
2022-08-25T11:18:27.740Z,995.13
2022-08-25T11:19:27.685Z,995.17
2022-08-25T11:20:27.794Z,995.17
2022-08-25T11:21:27.684Z,995.24
2022-08-25T11:22:27.695Z,995.16
2022-08-25T11:23:27.707Z,995.14
2022-08-25T11:24:27.669Z,995.14
2022-08-25T11:25:27.594Z,995.14
2022-08-25T11:26:31.025Z,995.10
2022-08-25T11:27:29.624Z,995.14
2022-08-25T11:28:27.708Z,995.09
2022-08-25T11:29:27.710Z,995.07
2022-08-25T11:30:27.587Z,995.03
2022-08-25T11:31:27.605Z,995.08
2022-08-25T11:32:27.620Z,995.05
2022-08-25T11:33:27.609Z,995.03
2022-08-25T11:34:27.581Z,994.96
2022-08-25T11:35:27.603Z,995.07
2022-08-25T11:36:29.364Z,995.03
2022-08-25T11:37:27.588Z,995.03
2022-08-25T11:38:27.599Z,995.05
2022-08-25T11:39:32.491Z,995.07
2022-08-25T11:40:28.633Z,995.05
2022-08-25T11:41:27.531Z,995.09
2022-08-25T11:42:27.529Z,995.04
2022-08-25T11:43:27.580Z,994.96
2022-08-25T11:44:27.520Z,994.98
2022-08-25T11:45:27.520Z,994.95
2022-08-25T11:46:27.780Z,994.95
2022-08-25T11:47:27.513Z,994.93
2022-08-25T11:48:27.623Z,994.95
2022-08-25T11:49:27.471Z,994.92
2022-08-25T11:50:30.331Z,994.97
2022-08-25T11:51:27.475Z,994.92
2022-08-25T11:52:30.606Z,994.88
2022-08-25T11:53:29.049Z,994.85
2022-08-25T11:54:27.500Z,994.92
2022-08-25T11:55:27.495Z,994.91
2022-08-25T11:56:27.462Z,994.89
2022-08-25T11:57:27.535Z,994.88
2022-08-25T11:58:27.628Z,994.86
2022-08-25T11:59:27.549Z,994.87
2022-08-25T12:00:27.458Z,994.85
2022-08-25T12:01:27.505Z,994.83
2022-08-25T12:02:27.450Z,994.84
2022-08-25T12:03:27.429Z,994.84
2022-08-25T12:04:27.543Z,994.79
2022-08-25T12:05:27.462Z,994.70
2022-08-25T12:06:27.409Z,994.77
2022-08-25T12:07:27.472Z,994.75
2022-08-25T12:08:27.444Z,994.68
2022-08-25T12:09:27.473Z,994.65
2022-08-25T12:10:27.410Z,994.62
2022-08-25T12:11:27.613Z,994.66
2022-08-25T12:12:27.393Z,994.53
2022-08-25T12:13:27.345Z,994.62
2022-08-25T12:14:28.067Z,994.58
2022-08-25T12:15:27.267Z,994.69
2022-08-25T12:16:27.272Z,994.68
2022-08-25T12:17:27.241Z,994.65
2022-08-25T12:18:27.211Z,994.65
2022-08-25T12:19:28.730Z,994.69
2022-08-25T12:20:27.267Z,994.68
2022-08-25T12:21:27.188Z,994.69
2022-08-25T12:22:27.177Z,994.71
2022-08-25T12:23:27.223Z,994.64
2022-08-25T12:24:27.213Z,994.69
2022-08-25T12:25:27.213Z,994.65
2022-08-25T12:26:27.197Z,994.65
2022-08-25T12:27:27.194Z,994.60
2022-08-25T12:28:27.139Z,994.58